Time;durP1;ratioP1;P1;durP2;ratioP2;P2;SDS_P1;SDS_P2;PMS_P1;PMS_P2;Temp;Humidity;BMP_temperature;BMP_pressure;BME280_temperature;BME280_humidity;BME280_pressure;Samples;Min_cycle;Max_cycle;Signal;HPM_P1;HPM_P2
2023/02/23 00:01:23;;;;;;;10.77;1.67;;;;;;;3.48;100.00;101224.19;4949616;28;20075;-81
2023/02/23 00:03:49;;;;;;;3.30;0.85;;;;;;;3.46;100.00;101228.66;4964642;28;20038;-81
2023/02/23 00:06:17;;;;;;;5.95;1.10;;;;;;;3.45;100.00;101225.22;4966024;28;20065;-79
2023/02/23 00:08:43;;;;;;;9.70;1.10;;;;;;;3.46;100.00;101226.91;4950849;28;20081;-81
2023/02/23 00:11:11;;;;;;;14.63;1.10;;;;;;;3.49;100.00;101227.69;4965661;28;20134;-81
2023/02/23 00:13:39;;;;;;;8.05;1.45;;;;;;;3.49;100.00;101236.34;4966015;28;20062;-82
2023/02/23 00:16:13;;;;;;;7.75;1.52;;;;;;;3.50;100.00;101231.97;4946902;28;20035;-82
2023/02/23 00:18:52;;;;;;;11.25;1.70;;;;;;;3.49;100.00;101232.91;4966048;28;20113;-81
2023/02/23 00:21:24;;;;;;;12.48;1.85;;;;;;;3.49;100.00;101230.28;4929023;29;20031;-81
2023/02/23 00:23:53;;;;;;;8.00;1.50;;;;;;;3.52;100.00;101238.78;4948183;28;20030;-82
2023/02/23 00:26:22;;;;;;;10.43;1.10;;;;;;;3.49;100.00;101249.41;4963745;28;20070;-81
2023/02/23 00:28:49;;;;;;;8.90;1.33;;;;;;;3.46;100.00;101241.72;4936512;28;20053;-82
2023/02/23 00:31:16;;;;;;;7.03;1.35;;;;;;;3.43;100.00;101241.88;4934934;28;20502;-81
2023/02/23 00:33:43;;;;;;;9.43;2.72;;;;;;;3.39;100.00;101237.75;4961649;28;20041;-81
2023/02/23 00:36:12;;;;;;;8.60;1.42;;;;;;;3.43;100.00;101237.50;4938598;28;20022;-81
2023/02/23 00:38:39;;;;;;;8.02;1.40;;;;;;;3.43;100.00;101249.72;4925990;28;20074;-81
2023/02/23 00:41:10;;;;;;;6.63;0.85;;;;;;;3.42;100.00;101243.66;4944674;28;20035;-81
2023/02/23 00:43:46;;;;;;;5.55;1.63;;;;;;;3.44;100.00;101241.81;4965651;28;20045;-81
2023/02/23 00:46:15;;;;;;;9.02;1.20;;;;;;;3.43;100.00;101234.03;4927076;29;20118;-81
2023/02/23 00:48:47;;;;;;;8.27;1.13;;;;;;;3.42;100.00;101229.75;4941228;28;20848;-81
2023/02/23 00:51:14;;;;;;;12.68;1.23;;;;;;;3.41;100.00;101241.13;4949890;28;20031;-81
2023/02/23 00:53:41;;;;;;;5.57;1.17;;;;;;;3.40;100.00;101234.19;4959326;28;20479;-81
2023/02/23 00:56:10;;;;;;;5.50;1.17;;;;;;;3.39;100.00;101245.59;4953750;28;20529;-80
2023/02/23 00:58:37;;;;;;;3.47;0.55;;;;;;;3.37;100.00;101243.06;4948869;28;20410;-81
2023/02/23 01:01:06;;;;;;;11.23;1.88;;;;;;;3.47;100.00;101248.66;4946672;28;20041;-81
2023/02/23 01:03:32;;;;;;;6.97;0.82;;;;;;;3.50;100.00;101250.25;4935481;28;20366;-81
2023/02/23 01:06:03;;;;;;;6.68;1.02;;;;;;;3.51;100.00;101251.94;4944610;28;20042;-81
2023/02/23 01:08:30;;;;;;;11.70;1.70;;;;;;;3.51;100.00;101258.03;4967157;28;20031;-81
2023/02/23 01:10:57;;;;;;;10.95;1.20;;;;;;;3.52;100.00;101264.94;4953516;28;20042;-78
2023/02/23 01:13:23;;;;;;;13.18;1.83;;;;;;;3.48;100.00;101263.41;4942084;28;20035;-78
2023/02/23 01:15:51;;;;;;;11.68;1.40;;;;;;;3.46;100.00;101257.41;4941479;28;20057;-81
2023/02/23 01:18:18;;;;;;;10.75;2.33;;;;;;;3.42;100.00;101259.34;4936638;28;20045;-81
2023/02/23 01:20:45;;;;;;;10.65;1.73;;;;;;;3.47;100.00;101253.88;4965858;28;20065;-81
2023/02/23 01:23:14;;;;;;;10.10;1.10;;;;;;;3.46;100.00;101270.47;4962766;28;20039;-81
2023/02/23 01:25:42;;;;;;;11.05;0.93;;;;;;;3.44;100.00;101261.88;4956654;28;20507;-80
2023/02/23 01:28:11;;;;;;;11.63;1.20;;;;;;;3.46;100.00;101270.47;4943896;28;20074;-81
2023/02/23 01:30:38;;;;;;;9.05;1.42;;;;;;;3.45;100.00;101267.03;4966671;28;20051;-81
2023/02/23 01:33:05;;;;;;;9.63;1.38;;;;;;;3.43;100.00;101275.84;4952098;28;20085;-81
2023/02/23 01:35:34;;;;;;;12.85;1.38;;;;;;;3.42;100.00;101267.19;4956835;28;20035;-81
2023/02/23 01:38:00;;;;;;;11.23;1.45;;;;;;;3.43;100.00;101271.47;4935045;29;20040;-81
2023/02/23 01:40:30;;;;;;;9.45;1.23;;;;;;;3.41;100.00;101282.94;4964574;28;20372;-81
2023/02/23 01:42:58;;;;;;;8.48;1.42;;;;;;;3.39;100.00;101271.72;4960403;28;20391;-81
2023/02/23 01:45:29;;;;;;;14.95;1.77;;;;;;;3.39;100.00;101279.56;4934187;28;20037;-81
2023/02/23 01:48:02;;;;;;;11.07;1.77;;;;;;;3.36;100.00;101275.31;4943144;28;20062;-81
2023/02/23 01:50:41;;;;;;;10.05;2.10;;;;;;;3.36;100.00;101280.53;4951117;28;20479;-81
2023/02/23 01:53:08;;;;;;;4.15;0.98;;;;;;;3.28;100.00;101269.66;4963026;28;20027;-81
2023/02/23 01:55:34;;;;;;;10.10;0.90;;;;;;;3.23;100.00;101278.53;4943530;28;20031;-81
2023/02/23 01:58:14;;;;;;;8.55;2.08;;;;;;;3.21;100.00;101276.94;4948568;28;20082;-81
2023/02/23 02:00:50;;;;;;;7.07;1.25;;;;;;;3.19;100.00;101292.69;4917653;28;20035;-81
2023/02/23 02:03:22;;;;;;;;;;;;;;;3.13;100.00;101286.91;4949290;28;20046;-81
2023/02/23 02:05:49;;;;;;;4.57;1.38;;;;;;;3.13;100.00;101295.59;4947463;28;19918;-81
2023/02/23 02:08:17;;;;;;;11.45;1.73;;;;;;;3.13;100.00;101297.34;4943224;28;20167;-81
2023/02/23 02:10:45;;;;;;;12.52;2.00;;;;;;;3.13;100.00;101289.50;4946979;28;20114;-81
2023/02/23 02:13:17;;;;;;;6.70;1.15;;;;;;;3.14;100.00;101304.28;4944123;28;20037;-81
2023/02/23 02:16:11;;;;;;;9.13;2.03;;;;;;;3.16;100.00;101307.66;4935692;28;20110;-81
2023/02/23 02:18:47;;;;;;;17.05;1.58;;;;;;;3.18;100.00;101308.44;4941541;28;20046;-81
2023/02/23 02:21:25;;;;;;;6.13;1.13;;;;;;;3.20;100.00;101307.44;4932146;29;20051;-81
2023/02/23 02:24:29;;;;;;;5.85;1.23;;;;;;;3.17;100.00;101310.19;4926395;29;20047;-81
2023/02/23 02:27:16;;;;;;;12.88;1.63;;;;;;;3.14;100.00;101309.50;4927598;28;20035;-81
2023/02/23 02:30:01;;;;;;;17.10;2.60;;;;;;;3.15;100.00;101314.66;4946133;28;20497;-81
2023/02/23 02:32:42;;;;;;;10.23;1.35;;;;;;;3.15;100.00;101303.34;4945185;28;20355;-81
2023/02/23 02:35:17;;;;;;;8.65;1.45;;;;;;;3.10;100.00;101303.59;4939431;28;20035;-79
2023/02/23 02:38:00;;;;;;;10.77;1.23;;;;;;;3.08;100.00;101301.03;4948833;28;20391;-80
2023/02/23 02:40:29;;;;;;;14.18;1.92;;;;;;;3.09;100.00;101291.44;4931453;28;20078;-81
2023/02/23 02:43:08;;;;;;;9.35;1.08;;;;;;;3.12;100.00;101301.75;4942567;28;20050;-80
2023/02/23 02:45:55;;;;;;;11.85;1.17;;;;;;;3.12;100.00;101301.75;4927430;28;20055;-80
2023/02/23 02:48:24;;;;;;;16.70;1.65;;;;;;;3.08;100.00;101297.56;4929862;29;20038;-80
2023/02/23 02:51:16;;;;;;;8.43;1.63;;;;;;;3.08;100.00;101303.66;4929476;29;20070;-81
2023/02/23 02:54:05;;;;;;;15.75;1.67;;;;;;;3.08;100.00;101316.72;4937069;28;20159;-80
2023/02/23 02:56:39;;;;;;;13.20;1.70;;;;;;;3.07;100.00;101322.84;4931049;29;20032;-80
2023/02/23 04:19:27;;;;;;;6.82;2.55;;;;;;;2.88;100.00;101379.50;4942029;28;20405;-80
2023/02/23 04:21:53;;;;;;;6.25;1.45;;;;;;;2.84;100.00;101379.63;4949185;28;20500;-80
2023/02/23 04:24:18;;;;;;;6.97;1.17;;;;;;;2.82;100.00;101378.84;4941037;28;20027;-79
2023/02/23 04:26:44;;;;;;;17.00;2.03;;;;;;;2.81;100.00;101371.94;4951351;28;20487;-79
2023/02/23 04:29:13;;;;;;;7.68;1.48;;;;;;;2.80;100.00;101378.06;4950873;29;20403;-79
2023/02/23 04:31:40;;;;;;;14.02;1.65;;;;;;;2.76;100.00;101381.75;4943727;28;20031;-79
2023/02/23 04:34:07;;;;;;;14.55;2.13;;;;;;;2.76;100.00;101384.34;4945438;28;20031;-80
2023/02/23 04:36:33;;;;;;;16.38;1.77;;;;;;;2.76;100.00;101381.75;4931357;29;20497;-80
2023/02/23 04:38:59;;;;;;;12.85;2.30;;;;;;;2.71;100.00;101375.88;4960688;28;20058;-79
2023/02/23 04:41:24;;;;;;;17.13;2.03;;;;;;;2.71;100.00;101379.34;4946591;28;20487;-80
2023/02/23 04:43:50;;;;;;;7.15;1.35;;;;;;;2.70;100.00;101379.41;4946683;28;20035;-80
2023/02/23 04:46:16;;;;;;;11.68;1.35;;;;;;;2.66;100.00;101380.47;4949105;28;20059;-79
2023/02/23 04:48:42;;;;;;;9.80;1.52;;;;;;;2.65;100.00;101386.59;4929032;29;20564;-80
2023/02/23 04:51:07;;;;;;;7.40;1.10;;;;;;;2.65;100.00;101389.22;4949493;28;20381;-80
2023/02/23 04:53:33;;;;;;;11.25;1.90;;;;;;;2.64;100.00;101380.56;4942631;28;20090;-79
2023/02/23 04:55:59;;;;;;;14.85;2.05;;;;;;;2.63;100.00;101378.00;4940964;28;20502;-80
2023/02/23 04:58:25;;;;;;;8.02;1.17;;;;;;;2.64;100.00;101374.47;4958586;28;20046;-79
2023/02/23 05:00:51;;;;;;;10.43;1.27;;;;;;;2.62;100.00;101376.28;4949817;28;20117;-80
2023/02/23 05:03:17;;;;;;;13.10;1.48;;;;;;;2.63;100.00;101373.63;4966015;28;20030;-79
2023/02/23 05:05:43;;;;;;;11.88;1.73;;;;;;;2.62;100.00;101373.69;4930683;28;20109;-80
2023/02/23 05:08:09;;;;;;;11.43;1.27;;;;;;;2.59;100.00;101370.31;4951990;28;20053;-80
2023/02/23 05:10:35;;;;;;;7.47;1.38;;;;;;;2.60;100.00;101360.72;4950212;28;20097;-80
2023/02/23 05:13:01;;;;;;;9.23;1.20;;;;;;;2.64;100.00;101350.97;4960256;28;20031;-79
2023/02/23 05:15:27;;;;;;;12.27;1.70;;;;;;;2.62;100.00;101353.66;4947722;28;20043;-80
2023/02/23 05:17:54;;;;;;;6.13;0.98;;;;;;;2.59;100.00;101362.50;4948766;28;20035;-79
2023/02/23 05:20:21;;;;;;;6.28;1.20;;;;;;;2.59;100.00;101359.88;4962818;28;20042;-79
2023/02/23 05:22:47;;;;;;;13.27;1.48;;;;;;;2.58;100.00;101371.22;4966447;28;20035;-80
2023/02/23 05:25:13;;;;;;;10.13;1.95;;;;;;;2.55;100.00;101366.13;4944243;28;20050;-80
2023/02/23 05:27:40;;;;;;;10.98;1.45;;;;;;;2.57;100.00;101366.91;4944871;28;20085;-80
2023/02/23 05:30:06;;;;;;;10.35;2.22;;;;;;;2.54;100.00;101366.19;4950112;28;20396;-79
2023/02/23 05:32:33;;;;;;;14.80;2.38;;;;;;;2.54;100.00;101369.66;4965292;28;20423;-80
2023/02/23 05:35:00;;;;;;;8.60;2.00;;;;;;;2.51;100.00;101363.72;4959444;28;20065;-80
2023/02/23 05:37:25;;;;;;;14.20;2.22;;;;;;;2.50;100.00;101360.25;4966334;28;20026;-80
2023/02/23 05:39:51;;;;;;;15.32;1.55;;;;;;;2.47;100.00;101356.03;4966444;28;20032;-79
2023/02/23 05:42:17;;;;;;;13.52;1.45;;;;;;;2.46;100.00;101350.91;4948199;28;20027;-79
2023/02/23 05:44:43;;;;;;;9.88;1.48;;;;;;;2.42;100.00;101352.78;4948156;28;20058;-80
2023/02/23 05:47:09;;;;;;;6.78;1.98;;;;;;;2.42;100.00;101349.34;4946677;28;20035;-79
2023/02/23 05:49:36;;;;;;;10.07;1.45;;;;;;;2.43;100.00;101351.03;4966388;28;20039;-80
2023/02/23 05:52:01;;;;;;;10.18;1.42;;;;;;;2.40;100.00;101359.00;4952822;28;20165;-80
2023/02/23 05:54:27;;;;;;;7.28;1.35;;;;;;;2.36;100.00;101358.28;4966760;28;20039;-80
2023/02/23 05:56:53;;;;;;;9.98;2.47;;;;;;;2.34;100.00;101357.53;4948378;28;20097;-80
2023/02/23 05:59:19;;;;;;;14.35;1.70;;;;;;;2.34;100.00;101367.97;4950282;28;20051;-80
2023/02/23 06:01:45;;;;;;;8.15;1.52;;;;;;;2.32;100.00;101370.63;4950830;28;20404;-80
2023/02/23 06:04:11;;;;;;;16.63;2.17;;;;;;;2.27;100.00;101372.59;4953029;28;20563;-80
2023/02/23 06:06:36;;;;;;;21.88;3.67;;;;;;;2.23;100.00;101371.88;4950127;28;20047;-80
2023/02/23 06:09:03;;;;;;;10.88;1.52;;;;;;;2.19;100.00;101378.13;4946496;28;20036;-80
2023/02/23 06:11:29;;;;;;;7.88;1.73;;;;;;;2.08;100.00;101373.41;4951364;28;20039;-80
2023/02/23 06:13:58;;;;;;;10.88;1.70;;;;;;;2.01;100.00;101384.16;4949010;28;20035;-80
2023/02/23 06:16:25;;;;;;;24.00;2.35;;;;;;;1.99;100.00;101376.41;4949243;28;20031;-80
2023/02/23 06:18:51;;;;;;;10.82;1.30;;;;;;;2.00;100.00;101366.78;4951436;28;20031;-80
2023/02/23 06:21:16;;;;;;;20.10;2.33;;;;;;;1.99;100.00;101371.19;4946368;28;20038;-79
2023/02/23 06:23:42;;;;;;;10.57;1.70;;;;;;;1.97;100.00;101375.59;4947178;28;20039;-80
2023/02/23 06:26:08;;;;;;;13.90;2.47;;;;;;;1.96;100.00;101376.50;4950414;28;20031;-79
2023/02/23 06:28:34;;;;;;;17.75;1.60;;;;;;;1.95;100.00;101383.50;4950595;28;20040;-80
2023/02/23 06:31:00;;;;;;;9.38;1.20;;;;;;;1.94;100.00;101386.16;4945116;28;20043;-80
2023/02/23 06:33:25;;;;;;;11.23;1.17;;;;;;;1.95;100.00;101393.91;4952947;28;20672;-80
2023/02/23 06:35:53;;;;;;;10.73;2.97;;;;;;;2.00;100.00;101395.47;4946610;28;20568;-79
2023/02/23 06:38:19;;;;;;;8.20;1.65;;;;;;;2.05;100.00;101386.56;4949829;28;20185;-80
2023/02/23 06:40:45;;;;;;;10.80;1.60;;;;;;;2.10;100.00;101388.97;4946618;28;20032;-79
2023/02/23 06:43:11;;;;;;;12.15;1.80;;;;;;;2.13;100.00;101399.28;4948128;28;20038;-80
2023/02/23 06:45:37;;;;;;;10.30;1.67;;;;;;;2.12;100.00;101401.94;4955740;28;20046;-80
2023/02/23 06:48:03;;;;;;;8.55;1.73;;;;;;;2.11;100.00;101401.09;4946779;28;20457;-80
2023/02/23 06:50:29;;;;;;;9.63;1.50;;;;;;;2.07;100.00;101405.59;4947814;28;20063;-80
2023/02/23 06:52:56;;;;;;;10.65;1.70;;;;;;;2.02;100.00;101410.16;4952161;28;20558;-80
2023/02/23 06:55:22;;;;;;;11.20;2.03;;;;;;;1.95;100.00;101408.72;4943914;28;20039;-79
2023/02/23 06:57:50;;;;;;;17.58;2.42;;;;;;;1.90;100.00;101413.25;4951230;28;20464;-80
2023/02/23 07:00:16;;;;;;;10.57;1.33;;;;;;;1.86;100.00;101421.22;4950922;28;20528;-79
2023/02/23 07:02:43;;;;;;;14.93;1.88;;;;;;;1.88;100.00;101428.97;4930798;28;20039;-80
2023/02/23 07:05:10;;;;;;;14.10;1.85;;;;;;;1.85;100.00;101434.31;4947869;28;20044;-79
2023/02/23 07:07:36;;;;;;;15.63;2.10;;;;;;;1.79;100.00;101435.41;4954021;28;20035;-79
2023/02/23 07:10:03;;;;;;;15.60;1.67;;;;;;;1.75;100.00;101433.00;4950111;28;20074;-80
2023/02/23 07:12:30;;;;;;;12.45;1.60;;;;;;;1.69;100.00;101434.13;4941465;28;20142;-80
2023/02/23 07:14:56;;;;;;;15.95;2.00;;;;;;;1.68;100.00;101441.06;4948851;28;20035;-79
2023/02/23 07:17:22;;;;;;;13.23;1.70;;;;;;;1.70;100.00;101441.00;4944619;28;20032;-79
2023/02/23 07:19:47;;;;;;;8.32;1.50;;;;;;;1.70;100.00;101441.88;4936839;29;20093;-80
2023/02/23 07:22:13;;;;;;;6.93;1.35;;;;;;;1.70;100.00;101441.88;4944259;28;20114;-80
2023/02/23 07:24:39;;;;;;;22.38;3.20;;;;;;;1.69;100.00;101445.38;4950598;28;20085;-80
2023/02/23 07:27:05;;;;;;;15.52;1.70;;;;;;;1.71;100.00;101447.91;4952834;28;20027;-80
2023/02/23 07:29:31;;;;;;;6.35;1.23;;;;;;;1.72;100.00;101449.63;4950043;28;20396;-80
2023/02/23 07:31:56;;;;;;;9.32;1.52;;;;;;;1.71;100.00;101453.13;4954636;28;20411;-79
2023/02/23 07:34:22;;;;;;;13.88;1.70;;;;;;;1.70;100.00;101454.91;4946514;28;20043;-80
2023/02/23 07:36:48;;;;;;;8.45;1.60;;;;;;;1.72;100.00;101460.06;4932320;29;20024;-80
2023/02/23 07:39:14;;;;;;;10.57;1.63;;;;;;;1.71;100.00;101466.16;4948772;28;20046;-80
2023/02/23 07:41:40;;;;;;;11.02;1.60;;;;;;;1.72;100.00;101470.47;4949871;28;20050;-80
2023/02/23 07:44:16;;;;;;;13.95;1.60;;;;;;;1.72;100.00;101471.31;4938274;29;20038;-80
2023/02/23 07:46:41;;;;;;;10.35;1.48;;;;;;;1.75;100.00;101467.75;4952439;28;20031;-80
2023/02/23 07:49:08;;;;;;;12.13;1.92;;;;;;;1.78;100.00;101457.19;4949955;28;20512;-80
2023/02/23 07:51:33;;;;;;;10.35;1.70;;;;;;;1.80;100.00;101467.56;4945860;28;20036;-79
2023/02/23 07:54:03;;;;;;;11.73;1.90;;;;;;;1.82;100.00;101477.00;4945841;28;20082;-80
2023/02/23 07:56:29;;;;;;;14.20;2.20;;;;;;;1.83;100.00;101478.69;4936477;29;20118;-80
2023/02/23 07:58:55;;;;;;;16.98;2.22;;;;;;;1.84;100.00;101475.19;4933472;28;20134;-80
2023/02/23 08:01:21;;;;;;;14.05;2.55;;;;;;;1.88;100.00;101472.47;4950128;28;20123;-80
2023/02/23 08:03:50;;;;;;;18.00;3.10;;;;;;;1.90;100.00;101476.69;4931400;29;20061;-80
2023/02/23 08:06:18;;;;;;;14.80;2.05;;;;;;;1.98;100.00;101474.63;4922542;29;20087;-80
2023/02/23 08:08:44;;;;;;;12.00;1.92;;;;;;;2.03;100.00;101471.84;4946994;28;20035;-80
2023/02/23 08:11:10;;;;;;;15.23;2.28;;;;;;;2.10;100.00;101481.09;4947178;28;20415;-80
2023/02/23 08:13:38;;;;;;;11.18;1.75;;;;;;;2.18;100.00;101474.72;4949119;28;20099;-79
2023/02/23 08:16:05;;;;;;;8.48;1.42;;;;;;;2.26;100.00;101474.41;4948426;28;20031;-80
2023/02/23 08:18:31;;;;;;;13.15;1.90;;;;;;;2.30;100.00;101470.75;4947766;28;20055;-80
2023/02/23 08:21:01;;;;;;;15.45;1.98;;;;;;;2.39;100.00;101474.72;4947544;28;20043;-80
2023/02/23 08:23:34;;;;;;;12.77;2.38;;;;;;;2.48;100.00;101466.50;4945988;28;20043;-79
2023/02/23 08:26:00;;;;;;;16.33;2.70;;;;;;;2.52;100.00;101481.09;4947046;28;20492;-80
2023/02/23 08:28:27;;;;;;;13.63;1.88;;;;;;;2.59;100.00;101481.69;4945164;28;20039;-80
2023/02/23 08:30:53;;;;;;;7.65;2.10;;;;;;;2.64;100.00;101484.09;4946696;28;20563;-80
2023/02/23 08:33:20;;;;;;;11.77;2.00;;;;;;;2.71;100.00;101475.94;4936377;28;20177;-80
2023/02/23 08:35:45;;;;;;;7.78;1.40;;;;;;;2.79;100.00;101475.59;4950607;28;20142;-80
2023/02/23 08:38:11;;;;;;;11.80;2.50;;;;;;;2.84;100.00;101478.00;4948671;28;20030;-79
2023/02/23 08:40:37;;;;;;;15.50;2.28;;;;;;;2.87;100.00;101474.44;4945936;28;20034;-80
2023/02/23 08:43:02;;;;;;;19.55;2.88;;;;;;;2.92;100.00;101477.66;4944658;28;20034;-80
2023/02/23 08:45:28;;;;;;;13.52;1.60;;;;;;;2.96;100.00;101471.41;4939956;28;20034;-80
2023/02/23 08:47:55;;;;;;;14.13;2.92;;;;;;;3.02;100.00;101475.50;4946128;28;20040;-80
2023/02/23 08:50:21;;;;;;;13.43;2.15;;;;;;;3.04;100.00;101474.50;4940185;28;20042;-79
2023/02/23 08:52:47;;;;;;;12.50;1.67;;;;;;;3.08;100.00;101470.84;4953710;28;20551;-80
2023/02/23 08:55:15;;;;;;;11.23;1.77;;;;;;;3.13;100.00;101480.22;4949192;28;20035;-80
2023/02/23 08:57:41;;;;;;;7.50;1.42;;;;;;;3.22;100.00;101487.63;4943681;28;20482;-80
2023/02/23 09:00:12;;;;;;;22.45;2.17;;;;;;;3.31;100.00;101473.31;4942688;28;20189;-79
2023/02/23 09:02:40;;;;;;;13.07;2.08;;;;;;;3.45;100.00;101483.13;4949909;28;20031;-80
2023/02/23 09:05:07;;;;;;;16.83;2.00;;;;;;;3.52;100.00;101488.91;4934696;28;20044;-80
2023/02/23 09:07:32;;;;;;;11.40;2.10;;;;;;;3.57;100.00;101495.59;4968322;28;20035;-80
2023/02/23 09:09:58;;;;;;;14.88;2.03;;;;;;;3.60;100.00;101499.84;4951031;28;20041;-80
2023/02/23 09:12:24;;;;;;;16.88;2.20;;;;;;;3.67;100.00;101510.84;4936630;28;20042;-79
2023/02/23 09:14:52;;;;;;;23.83;3.35;;;;;;;3.76;100.00;101507.81;4950397;28;20038;-80
2023/02/23 09:17:19;;;;;;;19.05;2.33;;;;;;;3.86;100.00;101513.44;4943748;28;20526;-80
2023/02/23 09:19:45;;;;;;;18.20;2.85;;;;;;;3.96;100.00;101509.47;4864000;29;20121;-80
2023/02/23 09:22:11;;;;;;;16.65;2.90;;;;;;;4.04;100.00;101508.25;4941783;28;20418;-80
2023/02/23 09:24:37;;;;;;;20.52;3.42;;;;;;;4.13;100.00;101509.56;4963593;28;20093;-80
2023/02/23 09:27:06;;;;;;;18.05;3.00;;;;;;;4.22;100.00;101515.19;4962530;28;20046;-80
2023/02/23 09:29:33;;;;;;;14.65;3.17;;;;;;;4.32;100.00;101515.56;4965663;28;20027;-80
2023/02/23 09:31:58;;;;;;;16.63;2.42;;;;;;;4.42;100.00;101510.72;4952098;28;20061;-79
2023/02/23 09:34:25;;;;;;;13.77;2.08;;;;;;;4.53;100.00;101509.31;4952649;28;20471;-80
2023/02/23 09:36:51;;;;;;;10.20;2.22;;;;;;;4.64;100.00;101514.00;4961645;28;20073;-79
2023/02/23 09:39:16;;;;;;;17.30;2.50;;;;;;;4.74;100.00;101515.25;4948639;28;20058;-80
2023/02/23 09:41:54;;;;;;;16.73;2.35;;;;;;;4.77;100.00;101511.59;4953599;28;20057;-80
2023/02/23 09:44:38;;;;;;;13.68;2.67;;;;;;;4.82;100.00;101507.84;4971768;28;20050;-79
2023/02/23 09:47:21;;;;;;;18.60;2.65;;;;;;;4.92;100.00;101517.84;4947970;28;20396;-80
2023/02/23 09:49:49;;;;;;;16.63;3.58;;;;;;;4.98;100.00;101507.03;4949489;28;20043;-79
2023/02/23 09:52:23;;;;;;;12.35;3.25;;;;;;;5.11;100.00;101516.84;4970471;28;20039;-79
2023/02/23 09:54:49;;;;;;;14.90;3.28;;;;;;;5.17;100.00;101519.16;4970103;28;20058;-80
2023/02/23 09:57:24;;;;;;;14.98;2.45;;;;;;;5.21;100.00;101524.13;4963000;28;20043;-79
2023/02/23 09:59:50;;;;;;;15.93;2.85;;;;;;;5.26;100.00;101520.41;4936236;28;20054;-79
2023/02/23 10:02:31;;;;;;;18.40;3.33;;;;;;;5.37;100.00;101518.06;4939201;28;20034;-79
2023/02/23 10:05:02;;;;;;;16.35;3.00;;;;;;;5.50;100.00;101523.47;4965179;28;20042;-79
2023/02/23 10:07:54;;;;;;;14.05;1.85;;;;;;;5.59;100.00;101512.47;4947576;28;20114;-80
2023/02/23 10:10:23;;;;;;;12.65;2.30;;;;;;;5.70;100.00;101513.69;4974096;28;20499;-80
2023/02/23 10:13:08;;;;;;;17.45;3.20;;;;;;;5.70;100.00;101514.50;4953301;28;20105;-79
2023/02/23 10:15:59;;;;;;;9.38;1.83;;;;;;;5.76;100.00;101513.34;4964777;28;20046;-80
2023/02/23 10:19:02;;;;;;;10.85;1.55;;;;;;;5.73;100.00;101505.63;4968298;28;20041;-79
2023/02/23 10:21:41;;;;;;;11.32;2.08;;;;;;;5.82;100.00;101497.25;4968405;28;20031;-79
2023/02/23 10:24:28;;;;;;;9.48;1.13;;;;;;;5.87;100.00;101504.00;4956823;28;20458;-79
2023/02/23 10:27:06;;;;;;;9.00;1.50;;;;;;;5.92;100.00;101501.97;4953970;28;20041;-79
2023/02/23 10:29:38;;;;;;;14.80;1.80;;;;;;;5.94;100.00;101500.94;4956103;28;20031;-79
2023/02/23 10:32:33;;;;;;;8.82;1.52;;;;;;;6.05;100.00;101494.28;4969198;28;20058;-80
2023/02/23 10:34:59;;;;;;;13.60;2.92;;;;;;;6.15;100.00;101494.56;4945384;28;20399;-79
2023/02/23 10:37:24;;;;;;;16.40;2.03;;;;;;;6.30;100.00;101495.47;4972075;28;20113;-79
2023/02/23 10:39:51;;;;;;;14.20;1.50;;;;;;;6.31;100.00;101495.38;4966654;28;20039;-79
2023/02/23 10:42:28;;;;;;;10.20;2.00;;;;;;;6.35;100.00;101488.16;4955318;28;20038;-80
2023/02/23 10:44:55;;;;;;;13.23;1.88;;;;;;;6.41;100.00;101489.56;4945491;28;20073;-80
2023/02/23 10:47:25;;;;;;;14.10;2.25;;;;;;;6.44;100.00;101485.00;4929357;28;20175;-79
2023/02/23 10:49:53;;;;;;;14.70;1.80;;;;;;;6.44;100.00;101490.25;4965923;28;20542;-80
2023/02/23 10:52:21;;;;;;;11.45;1.88;;;;;;;6.51;100.00;101500.38;4937529;28;20030;-79
2023/02/23 10:54:51;;;;;;;9.98;1.67;;;;;;;6.62;100.00;101503.22;4972366;28;20582;-79
2023/02/23 10:57:29;;;;;;;15.82;1.65;;;;;;;6.62;100.00;101503.22;4945540;28;20031;-79
2023/02/23 11:00:16;;;;;;;11.32;1.55;;;;;;;6.68;100.00;101500.22;4944292;28;20038;-79
2023/02/23 11:02:46;;;;;;;7.97;1.30;;;;;;;6.66;100.00;101502.09;4951711;28;20595;-80
2023/02/23 11:05:44;;;;;;;7.03;2.03;;;;;;;6.78;100.00;101503.13;4970992;28;20034;-79
2023/02/23 11:08:18;;;;;;;20.35;1.90;;;;;;;6.85;100.00;101503.59;4979686;28;20088;-80
2023/02/23 11:11:04;;;;;;;7.80;1.63;;;;;;;6.98;100.00;101498.44;4947187;28;20042;-80
2023/02/23 11:13:43;;;;;;;9.82;2.13;;;;;;;7.10;100.00;101496.84;4954603;28;20498;-80
2023/02/23 11:16:12;;;;;;;14.40;1.95;;;;;;;7.15;100.00;101493.91;4944467;28;20058;-77
2023/02/23 11:19:00;;;;;;;10.68;2.10;;;;;;;7.29;100.00;101490.41;4939125;28;20035;-78
2023/02/23 11:21:34;;;;;;;12.75;1.85;;;;;;;7.34;100.00;101490.97;4969199;28;20031;-80
2023/02/23 11:24:18;;;;;;;12.00;1.88;;;;;;;7.35;100.00;101481.28;4967790;28;20535;-80
2023/02/23 11:26:46;;;;;;;13.52;2.35;;;;;;;7.27;100.00;101471.25;4943000;28;20046;-80
2023/02/23 11:29:38;;;;;;;19.30;2.33;;;;;;;7.31;100.00;101473.59;4962089;28;20074;-80
2023/02/23 11:32:21;;;;;;;15.00;1.70;;;;;;;7.37;100.00;101467.13;4962945;28;20121;-80
2023/02/23 11:35:07;;;;;;;11.52;1.98;;;;;;;7.40;100.00;101459.03;4957705;28;20384;-79
2023/02/23 11:37:33;;;;;;;13.57;1.75;;;;;;;7.41;100.00;101458.06;4955244;28;20089;-80
2023/02/23 11:40:01;;;;;;;12.38;1.38;;;;;;;7.49;100.00;101464.63;4970500;28;20030;-79
2023/02/23 11:42:32;;;;;;;8.02;0.90;;;;;;;7.49;100.00;101472.50;4934915;28;20039;-79
2023/02/23 11:45:15;;;;;;;12.63;2.08;;;;;;;7.51;100.00;101462.75;4949244;28;20078;-79
2023/02/23 11:47:46;;;;;;;5.82;1.48;;;;;;;7.57;100.00;101467.59;4948647;28;20100;-80
2023/02/23 11:50:28;;;;;;;10.35;1.40;;;;;;;7.65;100.00;101465.34;4951599;28;20409;-79
2023/02/23 11:53:17;;;;;;;10.00;1.27;;;;;;;7.56;100.00;101453.59;4962682;28;20491;-79
2023/02/23 11:55:53;;;;;;;11.00;1.80;;;;;;;7.71;100.00;101461.44;4951014;28;20490;-80
2023/02/23 11:58:34;;;;;;;11.02;2.17;;;;;;;7.82;100.00;101460.72;4953549;28;20065;-79
2023/02/23 12:01:15;;;;;;;13.27;1.80;;;;;;;7.86;100.00;101464.88;4944997;28;20042;-80
2023/02/23 12:03:50;;;;;;;6.18;1.55;;;;;;;7.78;100.00;101454.84;4948399;28;20035;-79
2023/02/23 12:06:29;;;;;;;7.32;0.85;;;;;;;7.86;100.00;101458.75;4959439;28;20047;-80
2023/02/23 12:09:01;;;;;;;5.32;1.17;;;;;;;7.89;100.00;101450.66;4948704;28;20458;-80
2023/02/23 12:11:36;;;;;;;12.75;1.10;;;;;;;7.92;100.00;101447.81;4950895;28;20411;-80
2023/02/23 12:14:10;;;;;;;13.05;1.52;;;;;;;7.93;100.00;101447.72;4965572;28;20074;-80
2023/02/23 12:16:52;;;;;;;3.67;0.73;;;;;;;8.01;100.00;101444.56;4917804;29;20039;-80
2023/02/23 12:19:37;;;;;;;5.18;1.05;;;;;;;7.90;100.00;101439.19;4967461;28;20030;-80
2023/02/23 12:22:16;;;;;;;7.50;1.10;;;;;;;7.94;100.00;101438.03;4959520;28;20131;-80
2023/02/23 12:24:50;;;;;;;4.10;0.63;;;;;;;7.98;100.00;101436.06;4961887;28;20049;-80
2023/02/23 12:27:32;;;;;;;10.50;1.75;;;;;;;8.04;100.00;101427.75;4952286;28;20842;-81
2023/02/23 12:30:08;;;;;;;1.98;0.57;;;;;;;8.06;100.00;101431.09;4964986;28;20027;-80
2023/02/23 12:33:12;;;;;;;5.93;1.25;;;;;;;7.97;100.00;101427.28;4951904;28;20038;-80
2023/02/23 12:35:45;;;;;;;5.20;0.93;;;;;;;7.96;100.00;101415.09;4926896;28;20079;-80
2023/02/23 12:38:35;;;;;;;7.60;0.80;;;;;;;8.07;100.00;101420.44;4948415;28;20030;-80
2023/02/23 12:41:19;;;;;;;5.10;0.60;;;;;;;8.03;100.00;101412.88;4941212;28;20043;-80
2023/02/23 12:43:52;;;;;;;5.28;1.02;;;;;;;8.05;100.00;101425.00;4968076;28;20038;-80
2023/02/23 12:46:27;;;;;;;8.80;1.55;;;;;;;8.17;100.00;101419.84;4967052;28;20042;-80
2023/02/23 12:49:19;;;;;;;6.43;1.10;;;;;;;8.17;100.00;101414.59;4951411;28;20038;-80
2023/02/23 12:51:59;;;;;;;9.95;1.65;;;;;;;8.27;100.00;101398.97;4966649;28;20038;-80
2023/02/23 12:54:25;;;;;;;5.43;1.10;;;;;;;8.25;100.00;101414.88;4956340;28;20027;-80
2023/02/23 12:57:13;;;;;;;6.82;1.00;;;;;;;8.37;100.00;101396.56;4967108;28;20027;-80